sensor_id;sensor_type;location;lat;lon;timestamp;temperature;humidity
939;DHT22;456;53.584;9.968;2023-11-22T00:00:19;17.50;28.90
939;DHT22;456;53.584;9.968;2023-11-22T00:02:46;17.50;28.80
939;DHT22;456;53.584;9.968;2023-11-22T00:05:13;17.50;28.30
939;DHT22;456;53.584;9.968;2023-11-22T00:07:39;17.50;28.60
939;DHT22;456;53.584;9.968;2023-11-22T00:10:05;17.50;28.70
939;DHT22;456;53.584;9.968;2023-11-22T00:12:31;17.50;28.60
939;DHT22;456;53.584;9.968;2023-11-22T00:15:03;17.50;28.30
939;DHT22;456;53.584;9.968;2023-11-22T00:17:30;17.50;28.30
939;DHT22;456;53.584;9.968;2023-11-22T00:19:55;17.50;28.40
939;DHT22;456;53.584;9.968;2023-11-22T00:22:21;17.50;28.50
939;DHT22;456;53.584;9.968;2023-11-22T00:24:47;17.50;28.30
939;DHT22;456;53.584;9.968;2023-11-22T00:27:15;17.40;28.40
939;DHT22;456;53.584;9.968;2023-11-22T00:29:41;17.50;28.00
939;DHT22;456;53.584;9.968;2023-11-22T00:32:07;17.40;27.60
939;DHT22;456;53.584;9.968;2023-11-22T00:34:33;17.50;28.00
939;DHT22;456;53.584;9.968;2023-11-22T00:36:58;17.40;27.80
939;DHT22;456;53.584;9.968;2023-11-22T00:39:24;17.40;28.20
939;DHT22;456;53.584;9.968;2023-11-22T00:41:50;17.40;27.50
939;DHT22;456;53.584;9.968;2023-11-22T00:44:15;17.40;27.50
939;DHT22;456;53.584;9.968;2023-11-22T00:46:41;17.40;27.60
939;DHT22;456;53.584;9.968;2023-11-22T00:49:07;17.40;27.50
939;DHT22;456;53.584;9.968;2023-11-22T00:51:34;17.40;27.50
939;DHT22;456;53.584;9.968;2023-11-22T00:53:59;17.40;27.50
939;DHT22;456;53.584;9.968;2023-11-22T00:56:25;17.40;27.50
939;DHT22;456;53.584;9.968;2023-11-22T00:58:52;17.40;27.50
939;DHT22;456;53.584;9.968;2023-11-22T01:01:21;17.40;27.60
939;DHT22;456;53.584;9.968;2023-11-22T01:03:47;17.40;27.50
939;DHT22;456;53.584;9.968;2023-11-22T01:06:13;17.40;27.50
939;DHT22;456;53.584;9.968;2023-11-22T01:08:39;17.40;27.30
939;DHT22;456;53.584;9.968;2023-11-22T01:11:05;17.40;27.10
939;DHT22;456;53.584;9.968;2023-11-22T01:13:31;17.40;27.10
939;DHT22;456;53.584;9.968;2023-11-22T01:15:58;17.40;27.10
939;DHT22;456;53.584;9.968;2023-11-22T01:18:23;17.40;27.20
939;DHT22;456;53.584;9.968;2023-11-22T01:20:49;17.40;26.90
939;DHT22;456;53.584;9.968;2023-11-22T01:23:14;17.40;27.20
939;DHT22;456;53.584;9.968;2023-11-22T01:25:40;17.40;26.80
939;DHT22;456;53.584;9.968;2023-11-22T01:28:06;17.40;26.80
939;DHT22;456;53.584;9.968;2023-11-22T01:30:32;17.40;26.70
939;DHT22;456;53.584;9.968;2023-11-22T01:32:58;17.30;27.00
939;DHT22;456;53.584;9.968;2023-11-22T01:35:24;17.40;26.60
939;DHT22;456;53.584;9.968;2023-11-22T01:37:50;17.40;26.80
939;DHT22;456;53.584;9.968;2023-11-22T01:40:15;17.40;26.80
939;DHT22;456;53.584;9.968;2023-11-22T01:42:41;17.40;26.70
939;DHT22;456;53.584;9.968;2023-11-22T01:45:07;17.40;26.60
939;DHT22;456;53.584;9.968;2023-11-22T01:47:35;17.40;26.40
939;DHT22;456;53.584;9.968;2023-11-22T01:50:03;17.30;26.20
939;DHT22;456;53.584;9.968;2023-11-22T01:52:30;17.40;26.30
939;DHT22;456;53.584;9.968;2023-11-22T01:54:56;17.30;26.40
939;DHT22;456;53.584;9.968;2023-11-22T01:57:22;17.30;26.30
939;DHT22;456;53.584;9.968;2023-11-22T01:59:48;17.30;26.30
939;DHT22;456;53.584;9.968;2023-11-22T02:02:14;17.40;26.40
939;DHT22;456;53.584;9.968;2023-11-22T02:04:39;17.30;26.50
939;DHT22;456;53.584;9.968;2023-11-22T02:07:05;17.30;26.20
939;DHT22;456;53.584;9.968;2023-11-22T02:09:31;17.30;26.30
939;DHT22;456;53.584;9.968;2023-11-22T02:11:57;17.30;26.20
939;DHT22;456;53.584;9.968;2023-11-22T02:14:23;17.30;26.40
939;DHT22;456;53.584;9.968;2023-11-22T02:16:49;17.30;26.20
939;DHT22;456;53.584;9.968;2023-11-22T02:19:16;17.30;26.30
939;DHT22;456;53.584;9.968;2023-11-22T02:21:42;17.30;26.20
939;DHT22;456;53.584;9.968;2023-11-22T02:24:09;17.30;26.20
939;DHT22;456;53.584;9.968;2023-11-22T02:26:35;17.30;25.90
939;DHT22;456;53.584;9.968;2023-11-22T02:29:02;17.30;25.80
939;DHT22;456;53.584;9.968;2023-11-22T02:31:29;17.30;25.70
939;DHT22;456;53.584;9.968;2023-11-22T02:33:55;17.30;26.10
939;DHT22;456;53.584;9.968;2023-11-22T02:36:22;17.30;26.80
939;DHT22;456;53.584;9.968;2023-11-22T02:38:47;17.40;27.40
939;DHT22;456;53.584;9.968;2023-11-22T02:41:13;17.40;27.50
939;DHT22;456;53.584;9.968;2023-11-22T02:43:39;17.40;27.50
939;DHT22;456;53.584;9.968;2023-11-22T02:46:07;17.50;27.60
939;DHT22;456;53.584;9.968;2023-11-22T02:48:33;17.50;27.60
939;DHT22;456;53.584;9.968;2023-11-22T02:50:59;17.50;27.60
939;DHT22;456;53.584;9.968;2023-11-22T02:53:25;17.50;27.60
939;DHT22;456;53.584;9.968;2023-11-22T02:55:51;17.50;27.70
939;DHT22;456;53.584;9.968;2023-11-22T02:58:17;17.50;27.60
939;DHT22;456;53.584;9.968;2023-11-22T03:00:42;17.50;27.60
939;DHT22;456;53.584;9.968;2023-11-22T03:03:08;17.50;27.60
939;DHT22;456;53.584;9.968;2023-11-22T03:05:35;17.50;27.70
939;DHT22;456;53.584;9.968;2023-11-22T03:08:03;17.50;27.70
939;DHT22;456;53.584;9.968;2023-11-22T03:10:28;17.50;27.80
939;DHT22;456;53.584;9.968;2023-11-22T03:12:55;17.50;27.90
939;DHT22;456;53.584;9.968;2023-11-22T03:15:21;17.50;27.90
939;DHT22;456;53.584;9.968;2023-11-22T03:17:47;17.50;27.80
939;DHT22;456;53.584;9.968;2023-11-22T03:20:14;17.50;27.60
939;DHT22;456;53.584;9.968;2023-11-22T03:22:41;17.60;27.50
939;DHT22;456;53.584;9.968;2023-11-22T03:25:09;17.60;27.40
939;DHT22;456;53.584;9.968;2023-11-22T03:27:36;17.60;27.30
939;DHT22;456;53.584;9.968;2023-11-22T03:30:02;17.60;27.40
939;DHT22;456;53.584;9.968;2023-11-22T03:32:27;17.60;27.50
939;DHT22;456;53.584;9.968;2023-11-22T03:34:54;17.60;27.60
939;DHT22;456;53.584;9.968;2023-11-22T03:37:20;17.60;27.70
939;DHT22;456;53.584;9.968;2023-11-22T03:39:46;17.60;27.70
939;DHT22;456;53.584;9.968;2023-11-22T03:42:14;17.60;27.70
939;DHT22;456;53.584;9.968;2023-11-22T03:44:41;17.60;27.70
939;DHT22;456;53.584;9.968;2023-11-22T03:47:07;17.60;27.70
939;DHT22;456;53.584;9.968;2023-11-22T03:49:33;17.60;27.70
939;DHT22;456;53.584;9.968;2023-11-22T03:51:58;17.60;27.70
939;DHT22;456;53.584;9.968;2023-11-22T03:54:24;17.60;27.70
939;DHT22;456;53.584;9.968;2023-11-22T03:56:49;17.60;27.40
939;DHT22;456;53.584;9.968;2023-11-22T03:59:16;17.60;27.10
939;DHT22;456;53.584;9.968;2023-11-22T04:01:41;17.60;27.10
939;DHT22;456;53.584;9.968;2023-11-22T04:04:07;17.70;27.20
939;DHT22;456;53.584;9.968;2023-11-22T04:06:35;17.70;27.20
939;DHT22;456;53.584;9.968;2023-11-22T04:09:01;17.70;27.40
939;DHT22;456;53.584;9.968;2023-11-22T04:11:27;17.60;27.50
939;DHT22;456;53.584;9.968;2023-11-22T04:13:54;17.60;27.60
939;DHT22;456;53.584;9.968;2023-11-22T04:16:20;17.60;27.60
939;DHT22;456;53.584;9.968;2023-11-22T04:18:46;17.60;27.70
939;DHT22;456;53.584;9.968;2023-11-22T04:21:11;17.60;27.70
939;DHT22;456;53.584;9.968;2023-11-22T04:23:37;17.60;27.30
939;DHT22;456;53.584;9.968;2023-11-22T04:26:03;17.60;26.90
939;DHT22;456;53.584;9.968;2023-11-22T04:28:29;17.70;26.90
939;DHT22;456;53.584;9.968;2023-11-22T04:30:56;17.70;27.00
939;DHT22;456;53.584;9.968;2023-11-22T04:33:22;17.70;27.00
939;DHT22;456;53.584;9.968;2023-11-22T04:35:49;17.70;27.00
939;DHT22;456;53.584;9.968;2023-11-22T04:38:14;17.70;27.10
939;DHT22;456;53.584;9.968;2023-11-22T04:40:40;17.70;27.40
939;DHT22;456;53.584;9.968;2023-11-22T04:43:08;17.70;27.50
939;DHT22;456;53.584;9.968;2023-11-22T04:45:33;17.70;27.50
939;DHT22;456;53.584;9.968;2023-11-22T04:47:59;17.60;27.50
939;DHT22;456;53.584;9.968;2023-11-22T04:50:24;17.70;27.20
939;DHT22;456;53.584;9.968;2023-11-22T04:52:50;17.70;26.90
939;DHT22;456;53.584;9.968;2023-11-22T04:55:16;17.70;26.90
939;DHT22;456;53.584;9.968;2023-11-22T04:57:42;17.70;26.80
939;DHT22;456;53.584;9.968;2023-11-22T05:00:08;17.70;26.70
939;DHT22;456;53.584;9.968;2023-11-22T05:02:35;17.70;26.80
939;DHT22;456;53.584;9.968;2023-11-22T05:05:00;17.80;26.80
939;DHT22;456;53.584;9.968;2023-11-22T05:07:26;17.80;26.80
939;DHT22;456;53.584;9.968;2023-11-22T05:09:52;17.80;26.60
939;DHT22;456;53.584;9.968;2023-11-22T05:12:17;17.80;26.60
939;DHT22;456;53.584;9.968;2023-11-22T05:14:43;17.80;26.50
939;DHT22;456;53.584;9.968;2023-11-22T05:17:09;17.90;26.50
939;DHT22;456;53.584;9.968;2023-11-22T05:19:34;17.80;26.40
939;DHT22;456;53.584;9.968;2023-11-22T05:22:00;17.80;26.40
939;DHT22;456;53.584;9.968;2023-11-22T05:24:26;17.90;26.50
939;DHT22;456;53.584;9.968;2023-11-22T05:26:51;17.80;26.40
939;DHT22;456;53.584;9.968;2023-11-22T05:29:17;17.80;26.40
939;DHT22;456;53.584;9.968;2023-11-22T05:31:43;17.90;26.50
939;DHT22;456;53.584;9.968;2023-11-22T05:34:08;17.90;26.50
939;DHT22;456;53.584;9.968;2023-11-22T05:36:34;17.90;26.50
939;DHT22;456;53.584;9.968;2023-11-22T05:38:59;17.90;26.50
939;DHT22;456;53.584;9.968;2023-11-22T05:41:25;17.90;26.50
939;DHT22;456;53.584;9.968;2023-11-22T05:43:52;17.90;26.50
939;DHT22;456;53.584;9.968;2023-11-22T05:46:19;17.90;26.50
939;DHT22;456;53.584;9.968;2023-11-22T05:48:48;17.90;26.60
939;DHT22;456;53.584;9.968;2023-11-22T05:51:15;17.90;26.60
939;DHT22;456;53.584;9.968;2023-11-22T05:53:41;17.90;26.50
939;DHT22;456;53.584;9.968;2023-11-22T05:56:07;17.90;26.50
939;DHT22;456;53.584;9.968;2023-11-22T05:58:34;17.90;26.60
939;DHT22;456;53.584;9.968;2023-11-22T06:01:06;17.90;26.70
939;DHT22;456;53.584;9.968;2023-11-22T06:03:32;17.90;26.70
939;DHT22;456;53.584;9.968;2023-11-22T06:05:58;17.90;27.10
939;DHT22;456;53.584;9.968;2023-11-22T06:08:24;17.90;26.50
939;DHT22;456;53.584;9.968;2023-11-22T06:10:50;17.90;26.50
939;DHT22;456;53.584;9.968;2023-11-22T06:13:17;17.90;26.60
939;DHT22;456;53.584;9.968;2023-11-22T06:15:42;17.90;26.60
939;DHT22;456;53.584;9.968;2023-11-22T06:18:08;17.90;26.60
939;DHT22;456;53.584;9.968;2023-11-22T06:20:34;17.90;26.60
939;DHT22;456;53.584;9.968;2023-11-22T06:22:59;18.00;26.60
939;DHT22;456;53.584;9.968;2023-11-22T06:25:25;18.00;26.70
939;DHT22;456;53.584;9.968;2023-11-22T06:27:50;18.00;26.70
939;DHT22;456;53.584;9.968;2023-11-22T06:30:16;18.00;26.60
939;DHT22;456;53.584;9.968;2023-11-22T06:32:42;18.00;26.60
939;DHT22;456;53.584;9.968;2023-11-22T06:35:10;18.00;26.60
939;DHT22;456;53.584;9.968;2023-11-22T06:37:40;18.00;26.80
939;DHT22;456;53.584;9.968;2023-11-22T06:40:06;17.90;26.70
939;DHT22;456;53.584;9.968;2023-11-22T06:42:33;18.00;26.80
939;DHT22;456;53.584;9.968;2023-11-22T06:44:59;18.00;26.70
939;DHT22;456;53.584;9.968;2023-11-22T06:47:26;18.00;26.70
939;DHT22;456;53.584;9.968;2023-11-22T06:49:52;17.90;26.60
939;DHT22;456;53.584;9.968;2023-11-22T06:52:19;17.90;26.90
939;DHT22;456;53.584;9.968;2023-11-22T06:54:44;17.90;26.70
939;DHT22;456;53.584;9.968;2023-11-22T06:57:10;17.90;27.00
939;DHT22;456;53.584;9.968;2023-11-22T06:59:35;17.70;25.10
939;DHT22;456;53.584;9.968;2023-11-22T07:02:01;17.60;24.00
939;DHT22;456;53.584;9.968;2023-11-22T07:04:27;17.40;24.40
939;DHT22;456;53.584;9.968;2023-11-22T07:06:53;17.30;23.40
939;DHT22;456;53.584;9.968;2023-11-22T07:09:19;17.20;23.20
939;DHT22;456;53.584;9.968;2023-11-22T07:11:44;17.20;24.70
939;DHT22;456;53.584;9.968;2023-11-22T07:14:10;17.40;25.60
939;DHT22;456;53.584;9.968;2023-11-22T07:16:36;17.50;26.20
939;DHT22;456;53.584;9.968;2023-11-22T07:19:03;17.60;26.10
939;DHT22;456;53.584;9.968;2023-11-22T07:21:32;17.70;26.00
939;DHT22;456;53.584;9.968;2023-11-22T07:23:58;17.70;26.40
939;DHT22;456;53.584;9.968;2023-11-22T07:26:27;17.80;25.90
939;DHT22;456;53.584;9.968;2023-11-22T07:28:55;17.80;25.90
939;DHT22;456;53.584;9.968;2023-11-22T07:31:21;17.80;25.90
939;DHT22;456;53.584;9.968;2023-11-22T07:33:48;17.80;26.00
939;DHT22;456;53.584;9.968;2023-11-22T07:36:13;17.80;26.10
939;DHT22;456;53.584;9.968;2023-11-22T07:38:41;17.80;25.90
939;DHT22;456;53.584;9.968;2023-11-22T07:41:08;17.80;26.10
939;DHT22;456;53.584;9.968;2023-11-22T07:43:34;17.80;26.10
939;DHT22;456;53.584;9.968;2023-11-22T07:45:59;17.80;26.00
939;DHT22;456;53.584;9.968;2023-11-22T07:48:26;17.80;26.00
939;DHT22;456;53.584;9.968;2023-11-22T07:53:21;17.90;26.20
939;DHT22;456;53.584;9.968;2023-11-22T07:55:46;17.80;25.00
939;DHT22;456;53.584;9.968;2023-11-22T07:58:12;17.60;24.60
939;DHT22;456;53.584;9.968;2023-11-22T08:00:38;17.70;25.80
939;DHT22;456;53.584;9.968;2023-11-22T08:03:03;17.70;26.20
939;DHT22;456;53.584;9.968;2023-11-22T08:05:29;17.70;25.50
939;DHT22;456;53.584;9.968;2023-11-22T08:08:03;17.70;26.10
939;DHT22;456;53.584;9.968;2023-11-22T08:10:32;17.70;26.10
939;DHT22;456;53.584;9.968;2023-11-22T08:12:57;17.80;26.20
939;DHT22;456;53.584;9.968;2023-11-22T08:15:23;17.80;25.80
939;DHT22;456;53.584;9.968;2023-11-22T08:17:49;17.90;26.20
939;DHT22;456;53.584;9.968;2023-11-22T08:20:15;17.90;26.10
939;DHT22;456;53.584;9.968;2023-11-22T08:22:44;17.90;26.30
939;DHT22;456;53.584;9.968;2023-11-22T08:25:10;17.90;26.10
939;DHT22;456;53.584;9.968;2023-11-22T08:27:39;18.00;26.20
939;DHT22;456;53.584;9.968;2023-11-22T08:30:06;17.90;26.30
939;DHT22;456;53.584;9.968;2023-11-22T08:32:47;17.90;26.90
939;DHT22;456;53.584;9.968;2023-11-22T08:35:19;17.90;26.20
939;DHT22;456;53.584;9.968;2023-11-22T08:37:46;17.90;26.30
939;DHT22;456;53.584;9.968;2023-11-22T08:40:12;17.90;26.30
939;DHT22;456;53.584;9.968;2023-11-22T08:42:39;17.90;26.30
939;DHT22;456;53.584;9.968;2023-11-22T08:45:06;17.90;26.30
939;DHT22;456;53.584;9.968;2023-11-22T08:47:34;17.90;26.30
939;DHT22;456;53.584;9.968;2023-11-22T08:50:00;17.90;26.30
939;DHT22;456;53.584;9.968;2023-11-22T08:52:28;17.90;26.20
939;DHT22;456;53.584;9.968;2023-11-22T08:54:56;17.90;26.10
939;DHT22;456;53.584;9.968;2023-11-22T08:57:21;17.90;26.20
939;DHT22;456;53.584;9.968;2023-11-22T08:59:47;17.90;26.80
939;DHT22;456;53.584;9.968;2023-11-22T09:02:13;17.90;26.30
939;DHT22;456;53.584;9.968;2023-11-22T09:04:40;17.90;26.30
939;DHT22;456;53.584;9.968;2023-11-22T09:07:07;17.90;26.30
939;DHT22;456;53.584;9.968;2023-11-22T09:09:33;17.90;26.40
939;DHT22;456;53.584;9.968;2023-11-22T09:12:00;17.90;26.40
939;DHT22;456;53.584;9.968;2023-11-22T09:14:26;17.90;26.40
939;DHT22;456;53.584;9.968;2023-11-22T09:16:52;17.90;26.20
939;DHT22;456;53.584;9.968;2023-11-22T09:19:24;17.90;26.30
939;DHT22;456;53.584;9.968;2023-11-22T09:21:50;17.90;26.30
939;DHT22;456;53.584;9.968;2023-11-22T09:24:17;17.90;26.30
939;DHT22;456;53.584;9.968;2023-11-22T09:26:42;17.90;26.30
939;DHT22;456;53.584;9.968;2023-11-22T09:29:09;17.90;26.40
939;DHT22;456;53.584;9.968;2023-11-22T09:31:39;17.90;26.40
939;DHT22;456;53.584;9.968;2023-11-22T09:34:04;17.90;26.50
939;DHT22;456;53.584;9.968;2023-11-22T09:36:30;17.90;26.40
939;DHT22;456;53.584;9.968;2023-11-22T09:38:59;17.90;26.30
939;DHT22;456;53.584;9.968;2023-11-22T09:41:28;17.90;26.30
939;DHT22;456;53.584;9.968;2023-11-22T09:43:54;17.90;26.30
939;DHT22;456;53.584;9.968;2023-11-22T09:46:22;17.90;26.40
939;DHT22;456;53.584;9.968;2023-11-22T09:48:49;17.90;26.40
939;DHT22;456;53.584;9.968;2023-11-22T09:51:20;17.90;26.40
939;DHT22;456;53.584;9.968;2023-11-22T09:53:59;17.90;26.40
939;DHT22;456;53.584;9.968;2023-11-22T09:56:27;17.90;26.50
939;DHT22;456;53.584;9.968;2023-11-22T09:58:54;17.90;26.50
939;DHT22;456;53.584;9.968;2023-11-22T10:01:22;17.90;26.50
939;DHT22;456;53.584;9.968;2023-11-22T10:03:48;17.90;26.50
939;DHT22;456;53.584;9.968;2023-11-22T10:06:13;17.90;26.50
939;DHT22;456;53.584;9.968;2023-11-22T10:08:40;17.90;26.50
939;DHT22;456;53.584;9.968;2023-11-22T10:11:06;17.90;27.10
939;DHT22;456;53.584;9.968;2023-11-22T10:13:33;17.90;26.50
939;DHT22;456;53.584;9.968;2023-11-22T10:16:12;17.90;26.50
939;DHT22;456;53.584;9.968;2023-11-22T10:18:44;17.90;26.50
939;DHT22;456;53.584;9.968;2023-11-22T10:21:26;17.90;26.50
939;DHT22;456;53.584;9.968;2023-11-22T10:23:56;17.90;26.50
939;DHT22;456;53.584;9.968;2023-11-22T10:26:23;17.90;26.50
939;DHT22;456;53.584;9.968;2023-11-22T10:28:53;17.90;26.50
939;DHT22;456;53.584;9.968;2023-11-22T10:31:19;17.90;26.60
939;DHT22;456;53.584;9.968;2023-11-22T10:33:47;17.90;26.60
939;DHT22;456;53.584;9.968;2023-11-22T10:36:16;17.90;26.60
939;DHT22;456;53.584;9.968;2023-11-22T10:38:46;17.90;26.70
939;DHT22;456;53.584;9.968;2023-11-22T10:41:11;17.90;26.80
939;DHT22;456;53.584;9.968;2023-11-22T10:43:39;17.80;26.70
939;DHT22;456;53.584;9.968;2023-11-22T10:46:08;17.90;26.90
939;DHT22;456;53.584;9.968;2023-11-22T10:48:36;17.80;26.80
939;DHT22;456;53.584;9.968;2023-11-22T10:51:04;17.80;26.90
939;DHT22;456;53.584;9.968;2023-11-22T10:53:35;17.80;27.00
939;DHT22;456;53.584;9.968;2023-11-22T10:58:41;17.80;27.00
939;DHT22;456;53.584;9.968;2023-11-22T11:01:08;17.80;27.00
939;DHT22;456;53.584;9.968;2023-11-22T11:03:37;17.80;27.00
939;DHT22;456;53.584;9.968;2023-11-22T11:06:08;17.80;27.00
939;DHT22;456;53.584;9.968;2023-11-22T11:08:38;17.80;27.10
939;DHT22;456;53.584;9.968;2023-11-22T11:11:05;17.80;27.10
939;DHT22;456;53.584;9.968;2023-11-22T11:13:32;17.80;27.10
939;DHT22;456;53.584;9.968;2023-11-22T11:15:58;17.80;27.10
939;DHT22;456;53.584;9.968;2023-11-22T11:18:25;17.80;27.10
939;DHT22;456;53.584;9.968;2023-11-22T11:20:57;17.80;27.10
939;DHT22;456;53.584;9.968;2023-11-22T11:23:25;17.70;27.00
939;DHT22;456;53.584;9.968;2023-11-22T11:25:56;17.80;27.10
939;DHT22;456;53.584;9.968;2023-11-22T11:28:26;17.70;26.80
939;DHT22;456;53.584;9.968;2023-11-22T11:30:52;17.70;27.00
939;DHT22;456;53.584;9.968;2023-11-22T11:33:32;17.70;27.00
939;DHT22;456;53.584;9.968;2023-11-22T11:36:00;17.70;27.00
939;DHT22;456;53.584;9.968;2023-11-22T11:38:34;17.70;27.00
939;DHT22;456;53.584;9.968;2023-11-22T11:41:09;17.70;26.90
939;DHT22;456;53.584;9.968;2023-11-22T11:43:48;17.80;27.00
939;DHT22;456;53.584;9.968;2023-11-22T11:46:17;17.70;26.90
939;DHT22;456;53.584;9.968;2023-11-22T11:48:53;17.70;27.00
939;DHT22;456;53.584;9.968;2023-11-22T11:51:22;17.80;26.90
939;DHT22;456;53.584;9.968;2023-11-22T11:53:48;17.80;26.70
939;DHT22;456;53.584;9.968;2023-11-22T11:56:15;17.80;27.00
939;DHT22;456;53.584;9.968;2023-11-22T11:58:47;17.70;27.00
939;DHT22;456;53.584;9.968;2023-11-22T12:01:16;17.70;26.90
939;DHT22;456;53.584;9.968;2023-11-22T12:03:51;17.70;27.10
939;DHT22;456;53.584;9.968;2023-11-22T12:06:17;17.70;26.90
939;DHT22;456;53.584;9.968;2023-11-22T12:08:44;17.70;27.00
939;DHT22;456;53.584;9.968;2023-11-22T12:11:10;17.70;26.90
939;DHT22;456;53.584;9.968;2023-11-22T12:13:37;17.70;27.00
939;DHT22;456;53.584;9.968;2023-11-22T12:16:14;17.70;27.00
939;DHT22;456;53.584;9.968;2023-11-22T12:18:42;17.70;27.00
939;DHT22;456;53.584;9.968;2023-11-22T12:21:11;17.70;27.00
939;DHT22;456;53.584;9.968;2023-11-22T12:23:39;17.70;27.00
939;DHT22;456;53.584;9.968;2023-11-22T12:26:13;17.70;27.10
939;DHT22;456;53.584;9.968;2023-11-22T12:28:40;17.70;27.10
939;DHT22;456;53.584;9.968;2023-11-22T12:31:09;17.70;27.10
939;DHT22;456;53.584;9.968;2023-11-22T12:33:40;17.70;27.10
939;DHT22;456;53.584;9.968;2023-11-22T12:36:07;17.70;27.00
939;DHT22;456;53.584;9.968;2023-11-22T12:38:35;17.70;27.10
939;DHT22;456;53.584;9.968;2023-11-22T12:41:01;17.70;27.10
939;DHT22;456;53.584;9.968;2023-11-22T12:43:29;17.70;26.90
939;DHT22;456;53.584;9.968;2023-11-22T12:46:20;17.70;26.60
939;DHT22;456;53.584;9.968;2023-11-22T12:48:46;17.70;26.80
939;DHT22;456;53.584;9.968;2023-11-22T12:51:15;17.70;26.80
939;DHT22;456;53.584;9.968;2023-11-22T12:53:44;17.70;26.80
939;DHT22;456;53.584;9.968;2023-11-22T12:56:10;17.70;26.80
939;DHT22;456;53.584;9.968;2023-11-22T12:58:37;17.70;26.70
939;DHT22;456;53.584;9.968;2023-11-22T13:01:02;17.70;26.80
939;DHT22;456;53.584;9.968;2023-11-22T13:03:28;17.70;26.80
939;DHT22;456;53.584;9.968;2023-11-22T13:05:55;17.70;26.90
939;DHT22;456;53.584;9.968;2023-11-22T13:08:21;17.70;27.00
939;DHT22;456;53.584;9.968;2023-11-22T13:10:54;17.70;27.00
939;DHT22;456;53.584;9.968;2023-11-22T13:13:24;17.70;27.00
939;DHT22;456;53.584;9.968;2023-11-22T13:15:51;17.70;27.00
939;DHT22;456;53.584;9.968;2023-11-22T13:18:17;17.70;27.00
939;DHT22;456;53.584;9.968;2023-11-22T13:20:43;17.70;27.10
939;DHT22;456;53.584;9.968;2023-11-22T13:23:09;17.70;27.00
939;DHT22;456;53.584;9.968;2023-11-22T13:25:35;17.70;27.10
939;DHT22;456;53.584;9.968;2023-11-22T13:28:00;17.70;27.10
939;DHT22;456;53.584;9.968;2023-11-22T13:30:26;17.70;27.10
939;DHT22;456;53.584;9.968;2023-11-22T13:32:53;17.70;27.10
939;DHT22;456;53.584;9.968;2023-11-22T13:35:22;17.70;27.10
939;DHT22;456;53.584;9.968;2023-11-22T13:37:48;17.70;27.00
939;DHT22;456;53.584;9.968;2023-11-22T13:40:15;17.70;27.00
939;DHT22;456;53.584;9.968;2023-11-22T13:42:46;17.70;27.00
939;DHT22;456;53.584;9.968;2023-11-22T13:45:14;17.70;27.00
939;DHT22;456;53.584;9.968;2023-11-22T13:47:48;17.70;27.10
939;DHT22;456;53.584;9.968;2023-11-22T13:50:15;17.70;27.00
939;DHT22;456;53.584;9.968;2023-11-22T13:52:45;17.70;27.00
939;DHT22;456;53.584;9.968;2023-11-22T13:55:11;17.60;26.90
939;DHT22;456;53.584;9.968;2023-11-22T13:57:38;17.70;26.90
939;DHT22;456;53.584;9.968;2023-11-22T14:00:05;17.60;26.90
939;DHT22;456;53.584;9.968;2023-11-22T14:02:35;17.60;26.80
939;DHT22;456;53.584;9.968;2023-11-22T14:05:00;17.60;26.80
939;DHT22;456;53.584;9.968;2023-11-22T14:07:27;17.60;26.80
939;DHT22;456;53.584;9.968;2023-11-22T14:09:52;17.60;26.70
939;DHT22;456;53.584;9.968;2023-11-22T14:12:32;17.60;26.90
939;DHT22;456;53.584;9.968;2023-11-22T14:15:01;17.70;26.70
939;DHT22;456;53.584;9.968;2023-11-22T14:17:30;17.70;26.70
939;DHT22;456;53.584;9.968;2023-11-22T14:19:55;17.70;27.30
939;DHT22;456;53.584;9.968;2023-11-22T14:22:22;17.70;26.50
939;DHT22;456;53.584;9.968;2023-11-22T14:24:50;17.60;26.40
939;DHT22;456;53.584;9.968;2023-11-22T14:27:19;17.60;26.80
939;DHT22;456;53.584;9.968;2023-11-22T14:29:45;17.60;26.60
939;DHT22;456;53.584;9.968;2023-11-22T14:32:14;17.70;26.60
939;DHT22;456;53.584;9.968;2023-11-22T14:34:40;17.70;26.70
939;DHT22;456;53.584;9.968;2023-11-22T14:37:09;17.80;26.70
939;DHT22;456;53.584;9.968;2023-11-22T14:39:34;17.80;26.50
939;DHT22;456;53.584;9.968;2023-11-22T14:42:01;17.90;26.60
939;DHT22;456;53.584;9.968;2023-11-22T14:44:26;17.90;26.50
939;DHT22;456;53.584;9.968;2023-11-22T14:46:52;17.90;26.50
939;DHT22;456;53.584;9.968;2023-11-22T14:49:17;18.00;26.50
939;DHT22;456;53.584;9.968;2023-11-22T14:51:44;18.00;26.50
939;DHT22;456;53.584;9.968;2023-11-22T14:54:10;18.00;26.50
939;DHT22;456;53.584;9.968;2023-11-22T14:56:36;18.10;26.60
939;DHT22;456;53.584;9.968;2023-11-22T14:59:03;18.10;26.50
939;DHT22;456;53.584;9.968;2023-11-22T15:01:29;17.90;24.70
939;DHT22;456;53.584;9.968;2023-11-22T15:03:54;17.90;26.40
939;DHT22;456;53.584;9.968;2023-11-22T15:06:21;17.90;26.40
939;DHT22;456;53.584;9.968;2023-11-22T15:08:46;18.00;26.40
939;DHT22;456;53.584;9.968;2023-11-22T15:11:13;17.90;26.00
939;DHT22;456;53.584;9.968;2023-11-22T15:13:41;18.00;26.50
939;DHT22;456;53.584;9.968;2023-11-22T15:16:07;18.00;26.50
939;DHT22;456;53.584;9.968;2023-11-22T15:18:33;18.00;26.50
939;DHT22;456;53.584;9.968;2023-11-22T15:20:58;18.00;26.30
939;DHT22;456;53.584;9.968;2023-11-22T15:23:24;18.00;26.20
939;DHT22;456;53.584;9.968;2023-11-22T15:25:49;18.00;26.20
939;DHT22;456;53.584;9.968;2023-11-22T15:28:15;18.00;26.20
939;DHT22;456;53.584;9.968;2023-11-22T15:30:48;18.00;26.20
939;DHT22;456;53.584;9.968;2023-11-22T15:33:25;18.00;26.20
939;DHT22;456;53.584;9.968;2023-11-22T15:35:51;18.00;26.20
939;DHT22;456;53.584;9.968;2023-11-22T15:38:16;18.00;26.20
939;DHT22;456;53.584;9.968;2023-11-22T15:40:42;18.00;26.20
939;DHT22;456;53.584;9.968;2023-11-22T15:43:08;18.00;26.10
939;DHT22;456;53.584;9.968;2023-11-22T15:45:34;18.00;26.30
939;DHT22;456;53.584;9.968;2023-11-22T15:48:01;18.00;26.20
939;DHT22;456;53.584;9.968;2023-11-22T15:50:26;18.00;26.20
939;DHT22;456;53.584;9.968;2023-11-22T15:52:53;18.00;26.30
939;DHT22;456;53.584;9.968;2023-11-22T15:55:18;18.00;26.40
939;DHT22;456;53.584;9.968;2023-11-22T15:57:44;18.00;26.20
939;DHT22;456;53.584;9.968;2023-11-22T16:00:10;18.00;26.30
939;DHT22;456;53.584;9.968;2023-11-22T16:02:36;18.00;26.10
939;DHT22;456;53.584;9.968;2023-11-22T16:05:02;18.00;26.20
939;DHT22;456;53.584;9.968;2023-11-22T16:07:29;18.00;26.20
939;DHT22;456;53.584;9.968;2023-11-22T16:09:55;18.00;26.20
939;DHT22;456;53.584;9.968;2023-11-22T16:12:20;18.00;26.10
939;DHT22;456;53.584;9.968;2023-11-22T16:14:47;18.00;26.20
939;DHT22;456;53.584;9.968;2023-11-22T16:17:13;18.00;26.20
939;DHT22;456;53.584;9.968;2023-11-22T16:19:39;18.00;26.10
939;DHT22;456;53.584;9.968;2023-11-22T16:22:05;18.00;26.20
939;DHT22;456;53.584;9.968;2023-11-22T16:24:30;18.00;26.10
939;DHT22;456;53.584;9.968;2023-11-22T16:26:56;18.10;26.20
939;DHT22;456;53.584;9.968;2023-11-22T16:29:22;18.10;26.10
939;DHT22;456;53.584;9.968;2023-11-22T16:31:47;18.10;26.40
939;DHT22;456;53.584;9.968;2023-11-22T16:34:14;18.10;26.10
939;DHT22;456;53.584;9.968;2023-11-22T16:36:41;18.10;26.20